KSEA

Seattle-Tacoma International Airport

Seattle, Washington, USA
METAR KSEA 212253Z 22009KT 10SM OVC031 20/12 A3014 RMK AO2 SLP211 T02000117
Observed Flight Rules
Jun-21 @ 22:53 UTC (59 minutes ago) Visual Flight Rules
Wind Visibility Clouds
220° at 9 knots 10 miles
  • Overcast at 3,100' AGL
Temperatures Readings
Current 20°C / 68°F
Dewpoint 12°C / 54°F
Humidity 60%
Altimeter 30.14" Hg
Pressure 1021.1 hPa
Elevation 136
METAR KSEA 212253Z 22009KT 10SM OVC031 20/12 A3014 RMK AO2 SLP211 T02000117
Observed Flight Rules
Jun-21 @ 22:53 UTC
(59 minutes ago)
VFR
Wind Visibility
220° at 9 knots 10 miles
Clouds
  • Overcast at 3,100' AGL
Temperature Dewpoint
20°C / 68°F 12°C / 54°F
Humidity Altimeter Pressure
60% 30.14" Hg 1021.1 hPa